createdAt,value
2023-03-10T00:03:28.584Z,95583.50
2023-03-10T00:07:30.999Z,95578.75
2023-03-10T00:11:33.125Z,95579.00
2023-03-10T00:15:35.144Z,95580.88
2023-03-10T00:19:37.143Z,95578.53
2023-03-10T00:23:39.154Z,95577.81
2023-03-10T00:27:41.462Z,95567.47
2023-03-10T00:31:43.824Z,95565.91
2023-03-10T00:35:45.892Z,95557.50
2023-03-10T00:39:52.557Z,95558.44
2023-03-10T00:43:54.640Z,95545.50
2023-03-10T00:47:56.623Z,95539.53
2023-03-10T00:51:58.635Z,95530.16
2023-03-10T00:56:08.041Z,95537.28
2023-03-10T01:00:11.033Z,95531.34
2023-03-10T01:04:15.590Z,95525.28
2023-03-10T01:08:18.106Z,95537.66
2023-03-10T01:12:20.116Z,95521.94
2023-03-10T01:16:22.283Z,95517.91
2023-03-10T01:20:24.322Z,95515.28
2023-03-10T01:24:26.368Z,95509.34
2023-03-10T01:28:28.450Z,95515.41
2023-03-10T01:32:31.611Z,95500.53
2023-03-10T01:36:33.695Z,95503.16
2023-03-10T01:40:37.259Z,95499.13
2023-03-10T01:44:39.370Z,95487.97
2023-03-10T01:48:41.467Z,95479.66
2023-03-10T01:52:48.232Z,95473.13
2023-03-10T01:56:53.916Z,95482.03
2023-03-10T02:00:56.309Z,95468.00
2023-03-10T02:04:59.250Z,95472.53
2023-03-10T02:09:08.536Z,95461.09
2023-03-10T02:13:10.554Z,95449.94
2023-03-10T02:17:19.561Z,95454.91
2023-03-10T02:21:39.040Z,95452.31
2023-03-10T02:25:47.967Z,95445.19
2023-03-10T02:30:02.205Z,95438.03
2023-03-10T02:34:08.790Z,95424.00
2023-03-10T02:38:11.030Z,95428.97
2023-03-10T02:42:13.144Z,95428.75
2023-03-10T02:46:15.752Z,95420.75
2023-03-10T02:50:22.545Z,95429.31
2023-03-10T02:54:24.629Z,95417.06
2023-03-10T02:58:29.707Z,95428.50
2023-03-10T03:02:32.881Z,95428.75
2023-03-10T03:06:35.278Z,95422.56
2023-03-10T03:10:39.063Z,95419.13
2023-03-10T03:14:42.714Z,95421.13
2023-03-10T03:18:45.008Z,95419.31
2023-03-10T03:22:49.184Z,95420.44
2023-03-10T03:26:51.467Z,95419.78
2023-03-10T03:30:58.189Z,95420.31
2023-03-10T03:35:00.739Z,95423.78
2023-03-10T03:39:06.287Z,95420.72
2023-03-10T03:43:11.974Z,95400.88
2023-03-10T03:47:14.102Z,95404.81
2023-03-10T03:51:16.688Z,95412.19
2023-03-10T03:55:19.628Z,95423.84
2023-03-10T03:59:24.824Z,95421.44
2023-03-10T04:03:27.674Z,95428.31
2023-03-10T04:07:30.632Z,95425.16
2023-03-10T04:11:33.302Z,95418.56
2023-03-10T04:15:36.000Z,95428.81
2023-03-10T04:19:39.122Z,95420.25
2023-03-10T04:23:45.146Z,95418.34
2023-03-10T04:27:50.652Z,95418.22
2023-03-10T04:32:04.729Z,95425.25
2023-03-10T04:36:08.968Z,95418.81
2023-03-10T04:40:13.112Z,95418.56
2023-03-10T04:44:29.739Z,95425.47
2023-03-10T04:48:33.294Z,95422.13
2023-03-10T04:52:36.167Z,95405.75
2023-03-10T04:56:38.337Z,95411.81
2023-03-10T05:00:53.105Z,95402.16
2023-03-10T05:05:02.862Z,95396.47
2023-03-10T05:09:05.120Z,95401.00
2023-03-10T05:13:12.761Z,95404.56
2023-03-10T05:17:15.956Z,95405.50
2023-03-10T05:21:19.309Z,95413.59
2023-03-10T05:25:22.195Z,95397.22
2023-03-10T05:29:24.449Z,95391.84
2023-03-10T05:33:32.448Z,95388.28
2023-03-10T05:37:39.397Z,95384.16
2023-03-10T05:41:43.369Z,95380.81
2023-03-10T05:45:45.682Z,95384.38
2023-03-10T05:49:48.177Z,95372.84
2023-03-10T05:53:50.412Z,95365.13
2023-03-10T05:57:57.454Z,95379.41
2023-03-10T06:01:59.548Z,95377.81
2023-03-10T06:06:01.981Z,95381.50
2023-03-10T06:10:05.575Z,95373.19
2023-03-10T06:14:07.559Z,95373.19
2023-03-10T06:18:09.549Z,95390.81
2023-03-10T06:22:11.632Z,95385.44
2023-03-10T06:26:16.046Z,95377.38
2023-03-10T06:30:18.160Z,95379.41
2023-03-10T06:34:20.309Z,95365.47
2023-03-10T06:38:22.972Z,95368.03
2023-03-10T06:42:25.023Z,95368.13
2023-03-10T06:46:28.780Z,95365.69
2023-03-10T06:50:31.735Z,95373.19
2023-03-10T06:54:33.829Z,95371.84
2023-03-10T06:58:36.864Z,95369.44
2023-03-10T07:02:39.021Z,95366.63
2023-03-10T07:06:41.147Z,95371.72
2023-03-10T07:10:43.321Z,95358.97
2023-03-10T07:14:45.361Z,95353.38
2023-03-10T07:18:47.426Z,95358.78
2023-03-10T07:22:50.168Z,95370.47
2023-03-10T07:26:52.197Z,95367.22
2023-03-10T07:30:56.522Z,95374.72
2023-03-10T07:34:58.598Z,95364.59
2023-03-10T07:39:00.598Z,95365.72
2023-03-10T07:43:02.646Z,95372.94
2023-03-10T07:47:07.189Z,95378.06
2023-03-10T07:51:09.587Z,95370.59
2023-03-10T07:55:12.237Z,95373.53
2023-03-10T07:59:14.303Z,95373.84
2023-03-10T08:03:16.396Z,95367.31
2023-03-10T08:07:18.984Z,95372.50
2023-03-10T08:11:21.657Z,95356.72
2023-03-10T08:15:23.914Z,95356.53
2023-03-10T08:19:27.471Z,95351.28
2023-03-10T08:23:29.945Z,95349.63
2023-03-10T08:27:31.978Z,95360.72
2023-03-10T08:31:34.141Z,95370.28
2023-03-10T08:35:38.281Z,95370.69
2023-03-10T08:39:40.578Z,95372.31
2023-03-10T08:43:43.125Z,95376.88
2023-03-10T08:47:45.284Z,95372.50
2023-03-10T08:51:48.210Z,95371.81
2023-03-10T08:55:50.209Z,95360.81
2023-03-10T08:59:52.240Z,95377.47
2023-03-10T09:03:54.748Z,95379.50
2023-03-10T09:07:56.843Z,95380.25
2023-03-10T09:11:58.876Z,95376.09
2023-03-10T09:16:00.988Z,95388.91
2023-03-10T09:20:06.355Z,95387.00
2023-03-10T09:24:09.313Z,95381.06
2023-03-10T09:28:12.297Z,95389.78
2023-03-10T09:32:14.515Z,95398.09
2023-03-10T09:36:17.734Z,95397.66
2023-03-10T09:40:21.454Z,95400.13
2023-03-10T09:45:03.876Z,95395.72
2023-03-10T09:49:13.655Z,95398.31
2023-03-10T09:53:27.041Z,95416.78
2023-03-10T09:57:31.453Z,95413.50
2023-03-10T10:01:34.577Z,95412.31
2023-03-10T10:05:38.845Z,95409.44
2023-03-10T10:09:48.831Z,95407.09
2023-03-10T10:14:01.686Z,95406.97
2023-03-10T10:18:19.997Z,95408.06
2023-03-10T10:22:34.510Z,95409.28
2023-03-10T10:26:36.621Z,95407.34
2023-03-10T10:30:40.910Z,95414.09
2023-03-10T10:34:44.967Z,95406.25
2023-03-10T10:38:52.607Z,95407.75
2023-03-10T10:42:56.099Z,95403.22
2023-03-10T10:46:58.166Z,95402.09
2023-03-10T10:51:00.162Z,95398.53
2023-03-10T10:55:02.398Z,95398.69
2023-03-10T10:59:27.913Z,95403.34
2023-03-10T11:03:33.342Z,95389.94
2023-03-10T11:07:35.506Z,95392.72
2023-03-10T11:11:52.669Z,95393.66
2023-03-10T11:16:10.390Z,95395.25
2023-03-10T11:20:42.631Z,95396.38
2023-03-10T11:25:01.161Z,95398.31
2023-03-10T11:29:30.045Z,95402.34
2023-03-10T11:33:38.686Z,95382.63
2023-03-10T11:37:51.917Z,95401.25
2023-03-10T11:42:16.216Z,95389.66
2023-03-10T11:46:27.471Z,95383.81
2023-03-10T11:50:53.294Z,95375.84
2023-03-10T11:55:03.498Z,95373.56
2023-03-10T11:59:30.161Z,95371.53
2023-03-10T12:03:55.690Z,95376.59
2023-03-10T12:08:02.446Z,95370.31
2023-03-10T12:12:06.658Z,95369.66
2023-03-10T12:16:17.313Z,95369.16
2023-03-10T12:20:19.412Z,95369.88
2023-03-10T12:24:45.202Z,95365.31
2023-03-10T12:28:47.210Z,95359.44
2023-03-10T12:32:49.357Z,95345.94
2023-03-10T12:37:02.993Z,95341.91
2023-03-10T12:41:05.423Z,95336.28
2023-03-10T12:45:31.023Z,95335.91
2023-03-10T12:49:44.143Z,95331.16
2023-03-10T12:53:54.999Z,95332.63
2023-03-10T12:58:08.159Z,95337.22
2023-03-10T13:02:32.643Z,95331.22
2023-03-10T13:06:39.948Z,95334.41
2023-03-10T13:10:42.424Z,95319.41
2023-03-10T13:14:44.571Z,95323.09
2023-03-10T13:18:48.841Z,95331.66
2023-03-10T13:22:58.793Z,95327.59
2023-03-10T13:27:07.431Z,95327.97
2023-03-10T13:31:14.455Z,95317.72
2023-03-10T13:35:31.880Z,95314.53
2023-03-10T13:39:34.097Z,95311.56
2023-03-10T13:43:39.204Z,95309.94
2023-03-10T13:47:42.429Z,95311.06
2023-03-10T13:52:05.851Z,95314.63
2023-03-10T13:56:38.033Z,95321.28
2023-03-10T14:00:41.553Z,95327.25
2023-03-10T14:04:54.601Z,95318.81
2023-03-10T14:08:56.754Z,95297.38
2023-03-10T14:12:58.796Z,95294.63
2023-03-10T14:17:05.432Z,95302.75
2023-03-10T14:21:29.322Z,95309.00
2023-03-10T14:25:31.369Z,95309.63
2023-03-10T14:29:33.721Z,95303.97
2023-03-10T14:33:36.817Z,95312.84
2023-03-10T14:37:39.002Z,95326.06
2023-03-10T14:41:41.103Z,95328.50
2023-03-10T14:45:45.284Z,95317.84
2023-03-10T14:49:47.372Z,95325.66
2023-03-10T14:53:49.453Z,95310.09
2023-03-10T14:57:58.521Z,95324.63
2023-03-10T15:02:08.033Z,95335.94
2023-03-10T15:06:14.774Z,95325.09
2023-03-10T15:10:20.396Z,95347.75
2023-03-10T15:14:22.882Z,95337.94
2023-03-10T15:18:27.035Z,95321.63
2023-03-10T15:22:29.109Z,95333.50
2023-03-10T15:26:31.136Z,95319.97
2023-03-10T15:30:36.008Z,95330.47
2023-03-10T15:34:38.045Z,95314.13
2023-03-10T15:38:40.062Z,95320.63
2023-03-10T15:42:46.477Z,95334.84
2023-03-10T15:46:50.872Z,95356.88
2023-03-10T15:50:53.089Z,95362.84
2023-03-10T15:54:56.002Z,95367.53
2023-03-10T15:58:58.010Z,95364.25
2023-03-10T16:03:00.091Z,95385.13
2023-03-10T16:07:03.741Z,95393.09
2023-03-10T16:11:10.199Z,95382.06
2023-03-10T16:15:13.302Z,95373.63
2023-03-10T16:19:15.930Z,95365.66
2023-03-10T16:23:17.963Z,95364.59
2023-03-10T16:27:20.015Z,95388.28
2023-03-10T16:31:23.866Z,95397.44
2023-03-10T16:35:25.972Z,95414.28
2023-03-10T16:39:31.311Z,95402.38
2023-03-10T16:43:33.655Z,95403.69
2023-03-10T16:47:35.684Z,95420.88
2023-03-10T16:51:42.776Z,95433.44
2023-03-10T16:55:44.794Z,95436.47
2023-03-10T16:59:47.450Z,95457.09
2023-03-10T17:03:50.231Z,95445.31
2023-03-10T17:07:55.950Z,95464.56
2023-03-10T17:11:58.382Z,95482.41
2023-03-10T17:16:00.579Z,95466.78
2023-03-10T17:20:04.223Z,95482.38
2023-03-10T17:24:07.370Z,95488.31
2023-03-10T17:28:09.415Z,95497.09
2023-03-10T17:32:11.535Z,95507.94
2023-03-10T17:36:15.692Z,95509.84
2023-03-10T17:40:19.955Z,95491.16
2023-03-10T17:44:22.078Z,95514.94
2023-03-10T17:48:25.217Z,95528.16
2023-03-10T17:52:27.539Z,95517.97
2023-03-10T17:56:29.937Z,95524.50
2023-03-10T18:00:31.974Z,95529.41
2023-03-10T18:04:35.824Z,95527.13
2023-03-10T18:08:38.005Z,95550.00
2023-03-10T18:12:39.973Z,95546.00
2023-03-10T18:16:42.005Z,95586.47
2023-03-10T18:20:43.996Z,95613.94
2023-03-10T18:24:46.031Z,95612.03
2023-03-10T18:28:48.190Z,95620.88
2023-03-10T18:32:50.569Z,95665.94
2023-03-10T18:36:52.741Z,95671.75
2023-03-10T18:41:02.092Z,95670.81
2023-03-10T18:45:04.463Z,95712.31
2023-03-10T18:49:07.192Z,95706.69
2023-03-10T18:53:09.983Z,95709.72
2023-03-10T18:57:12.716Z,95737.41
2023-03-10T19:01:15.310Z,95769.25
2023-03-10T19:05:17.514Z,95789.53
2023-03-10T19:09:20.331Z,95772.53
2023-03-10T19:13:23.196Z,95763.78
2023-03-10T19:17:28.588Z,95817.16
2023-03-10T19:21:30.556Z,95815.00
2023-03-10T19:25:32.522Z,95859.78
2023-03-10T19:29:34.805Z,95880.66
2023-03-10T19:33:38.156Z,95844.00
2023-03-10T19:37:43.418Z,95940.13
2023-03-10T19:41:45.406Z,95904.41
2023-03-10T19:45:47.404Z,95940.69
2023-03-10T19:49:49.444Z,95940.00
2023-03-10T19:53:53.860Z,95927.34
2023-03-10T19:57:56.104Z,95946.34
2023-03-10T20:02:01.522Z,95948.72
2023-03-10T20:06:05.033Z,95964.53
2023-03-10T20:10:08.115Z,95994.50
2023-03-10T20:14:11.010Z,96011.66
2023-03-10T20:18:13.026Z,96049.66
2023-03-10T20:22:18.442Z,96051.22
2023-03-10T20:26:20.577Z,96113.41
2023-03-10T20:30:29.313Z,96120.63
2023-03-10T20:34:32.044Z,96143.19
2023-03-10T20:38:34.133Z,96174.94
2023-03-10T20:42:36.180Z,96210.19
2023-03-10T20:46:38.176Z,96201.59
2023-03-10T20:50:40.161Z,96256.88
2023-03-10T20:54:42.155Z,96255.19
2023-03-10T20:58:45.193Z,96286.25
2023-03-10T21:02:48.756Z,96299.78
2023-03-10T21:06:50.782Z,96322.19
2023-03-10T21:10:52.828Z,96342.13
2023-03-10T21:14:54.882Z,96354.75
2023-03-10T21:18:59.039Z,96372.13
2023-03-10T21:23:01.092Z,96394.94
2023-03-10T21:27:03.636Z,96397.03
2023-03-10T21:31:05.710Z,96408.94
2023-03-10T21:35:08.205Z,96423.63
2023-03-10T21:39:10.286Z,96441.22
2023-03-10T21:43:12.271Z,96437.53
2023-03-10T21:47:14.383Z,96470.50
2023-03-10T21:51:18.719Z,96470.66
2023-03-10T21:55:23.528Z,96492.19
2023-03-10T21:59:25.854Z,96492.34
2023-03-10T22:03:28.052Z,96499.56
2023-03-10T22:07:30.048Z,96509.88
2023-03-10T22:11:32.183Z,96524.56
2023-03-10T22:15:34.463Z,96528.97
2023-03-10T22:19:36.462Z,96532.41
2023-03-10T22:23:38.569Z,96551.25
2023-03-10T22:27:41.481Z,96562.41
2023-03-10T22:31:43.652Z,96579.59
2023-03-10T22:35:51.775Z,96579.75
2023-03-10T22:39:53.938Z,96586.53
2023-03-10T22:43:56.507Z,96594.16
2023-03-10T22:48:01.639Z,96618.38
2023-03-10T22:52:06.956Z,96623.66
2023-03-10T22:56:09.039Z,96622.56
2023-03-10T23:00:19.551Z,96632.03
2023-03-10T23:04:21.712Z,96652.66
2023-03-10T23:08:24.020Z,96657.69
2023-03-10T23:12:26.814Z,96659.50
2023-03-10T23:16:29.879Z,96650.06
2023-03-10T23:20:40.845Z,96662.97
2023-03-10T23:24:42.892Z,96673.22
2023-03-10T23:28:44.916Z,96670.56
2023-03-10T23:32:49.649Z,96683.66
2023-03-10T23:36:51.846Z,96688.91
2023-03-10T23:40:55.363Z,96696.09
2023-03-10T23:44:57.481Z,96695.31
2023-03-10T23:48:59.657Z,96694.38
2023-03-10T23:53:02.648Z,96690.19
2023-03-10T23:57:04.907Z,96700.53
